| time (UTC) | temp F | wind direction | speed MPH | gust MPH | rain 1hr in | rain 24hr in | rain mn in | humidity % | barometer mb |
| 20260901022023 | 60 | 298 | 1.0 | 4.0 | 0.02 | 0.08 | 0.08 | 86 | 1027.7 |
| 20260901021551 | 60 | 0 | 1.0 | 4.0 | 0.02 | 0.08 | 0.08 | 87 | 1027.6 |
| 20260901021024 | 60 | 294 | 0.0 | 10.0 | 0.02 | 0.08 | 0.08 | 87 | 1027.4 |
| 20260901020525 | 60 | 0 | 2.0 | 11.0 | 0.02 | 0.08 | 0.08 | 87 | 1027.2 |
| 20260901020045 | 60 | 295 | 6.0 | 11.0 | 0.03 | 0.08 | 0.08 | 88 | 1026.5 |
| 20260901015526 | 60 | 300 | 4.0 | 10.0 | 0.03 | 0.08 | 0.08 | 88 | 1026.3 |
| 20260901015027 | 61 | 267 | 3.0 | 10.0 | 0.03 | 0.08 | 0.08 | 88 | 1026.4 |
| 20260901014558 | 61 | 283 | 5.0 | 10.0 | 0.03 | 0.08 | 0.08 | 87 | 1026.7 |
| 20260901014024 | 61 | 283 | 5.0 | 10.0 | 0.02 | 0.07 | 0.07 | 87 | 1026.9 |
| 20260901013524 | 61 | 268 | 2.0 | 7.0 | 0.03 | 0.07 | 0.07 | 88 | 1027.0 |
| 20260901013050 | 61 | 276 | 3.0 | 7.0 | 0.03 | 0.07 | 0.07 | 88 | 1026.9 |
| 20260901012527 | 61 | 217 | 2.0 | 7.0 | 0.03 | 0.07 | 0.07 | 88 | 1026.9 |
| 20260901012024 | 61 | 321 | 0.0 | 4.0 | 0.02 | 0.06 | 0.06 | 86 | 1026.8 |
| 20260901011543 | 62 | 321 | 0.0 | 4.0 | 0.02 | 0.06 | 0.06 | 85 | 1026.6 |
| 20260901011025 | 62 | 322 | 2.0 | 4.0 | 0.02 | 0.06 | 0.06 | 85 | 1026.5 |
| 20260901010529 | 62 | 322 | 0.0 | 5.0 | 0.02 | 0.06 | 0.06 | 86 | 1026.6 |
| 20260901010049 | 62 | 323 | 2.0 | 5.0 | 0.02 | 0.05 | 0.05 | 87 | 1026.6 |
| 20260901005525 | 62 | 325 | 2.0 | 5.0 | 0.02 | 0.05 | 0.05 | 88 | 1026.6 |
| 20260901005026 | 62 | 328 | 1.0 | 3.0 | 0.02 | 0.05 | 0.05 | 87 | 1027.0 |
| 20260901004551 | 62 | 0 | 0.0 | 4.0 | 0.03 | 0.05 | 0.05 | 86 | 1027.1 |
| 20260901004023 | 62 | 327 | 1.0 | 5.0 | 0.02 | 0.04 | 0.04 | 86 | 1027.4 |
| 20260901003523 | 62 | 0 | 1.0 | 7.0 | 0.02 | 0.04 | 0.04 | 84 | 1027.2 |
| 20260901003042 | 63 | 309 | 2.0 | 7.0 | 0.02 | 0.04 | 0.04 | 83 | 1027.1 |
| 20260901002523 | 63 | 316 | 3.0 | 9.0 | 0.02 | 0.04 | 0.04 | 83 | 1027.1 |
| 20260901002031 | 63 | 334 | 2.0 | 10.0 | 0.02 | 0.04 | 0.04 | 83 | 1027.2 |
| 20260901001548 | 63 | 337 | 4.0 | 12.0 | 0.02 | 0.04 | 0.04 | 83 | 1027.2 |
| 20260901001024 | 63 | 339 | 5.0 | 12.0 | 0.02 | 0.04 | 0.04 | 83 | 1027.1 |
| 20260901000526 | 63 | 360 | 5.0 | 10.0 | 0.02 | 0.04 | 0.04 | 83 | 1027.2 |
| 20260901000047 | 63 | 329 | 4.0 | 11.0 | 0.02 | 0.03 | 0.03 | 83 | 1027.3 |
| 20260831235525 | 63 | 25 | 3.0 | 15.0 | 0.02 | 0.03 | 0.03 | 81 | 1027.1 |
| 20260831235024 | 64 | 43 | 3.0 | 15.0 | 0.02 | 0.03 | 0.03 | 80 | 1027.1 |
| 20260831234545 | 64 | 107 | 6.0 | 15.0 | 0.02 | 0.02 | 0.02 | 79 | 1026.8 |
| 20260831234025 | 64 | 48 | 0.0 | 2.0 | 0.02 | 0.02 | 0.02 | 82 | 1026.6 |
| 20260831233524 | 64 | 0 | 0.0 | 4.0 | 0.02 | 0.02 | 0.02 | 80 | 1026.2 |
| 20260831233042 | 64 | 0 | 0.0 | 9.0 | 0.02 | 0.02 | 0.02 | 77 | 1025.9 |
| 20260831232545 | 65 | 47 | 1.0 | 9.0 | 0.02 | 0.02 | 0.02 | 74 | 1025.7 |
| 20260831232023 | 65 | 76 | 3.0 | 12.0 | 0.02 | 0.02 | 0.02 | 71 | 1025.8 |
| 20260831231547 | 66 | 17 | 1.0 | 12.0 | 0.02 | 0.02 | 0.02 | 68 | 1025.6 |
| 20260831231027 | 64 | 327 | 6.0 | 12.0 | 0.02 | 0.02 | 0.02 | 65 | 1025.5 |
| 20260831230528 | 63 | 340 | 4.0 | 10.0 | 0.02 | 0.02 | 0.02 | 77 | 1025.7 |
| 20260831230047 | 63 | 338 | 5.0 | 10.0 | 0.01 | 0.01 | 0.01 | 78 | 1025.8 |
| 20260831225524 | 63 | 352 | 5.0 | 14.0 | 0.01 | 0.01 | 0.01 | 77 | 1025.7 |
| 20260831225023 | 63 | 342 | 6.0 | 15.0 | 0.01 | 0.01 | 0.01 | 76 | 1025.8 |
| 20260831224541 | 64 | 338 | 9.0 | 17.0 | 0.00 | 0.00 | 0.00 | 73 | 1025.7 |
| 20260831224024 | 64 | 329 | 9.0 | 19.0 | 0.00 | 0.00 | 0.00 | 73 | 1025.7 |
| 20260831223524 | 66 | 5 | 8.0 | 19.0 | 0.00 | 0.00 | 0.00 | 69 | 1025.8 |
| 20260831223049 | 68 | 315 | 9.0 | 25.0 | 0.00 | 0.00 | 0.00 | 64 | 1025.9 |
| 20260831222524 | 71 | 25 | 10.0 | 25.0 | 0.00 | 0.00 | 0.00 | 59 | 1026.0 |
| 20260831222025 | 73 | 71 | 11.0 | 25.0 | 0.00 | 0.00 | 0.00 | 50 | 1026.3 |
| 20260831221551 | 74 | 15 | 14.0 | 31.0 | 0.00 | 0.00 | 0.00 | 46 | 1026.2 |
| 20260831221028 | 76 | 22 | 14.0 | 31.0 | 0.00 | 0.00 | 0.00 | 43 | 1025.9 |
| 20260831220524 | 80 | 67 | 14.0 | 24.0 | 0.00 | 0.00 | 0.00 | 39 | 1025.6 |
| 20260831220050 | 84 | 54 | 6.0 | 17.0 | 0.00 | 0.00 | 0.00 | 34 | 1025.6 |
| 20260831215527 | 83 | 117 | 3.0 | 10.0 | 0.00 | 0.00 | 0.00 | 33 | 1025.2 |
| 20260831215027 | 83 | 0 | 6.0 | 13.0 | 0.00 | 0.00 | 0.00 | 33 | 1025.3 |
| 20260831214549 | 83 | 157 | 7.0 | 13.0 | 0.00 | 0.00 | 0.00 | 33 | 1025.4 |
| 20260831214026 | 84 | 136 | 3.0 | 12.0 | 0.00 | 0.00 | 0.00 | 32 | 1025.1 |
| 20260831213527 | 84 | 0 | 1.0 | 14.0 | 0.00 | 0.00 | 0.00 | 32 | 1025.3 |
| 20260831213042 | 84 | 108 | 4.0 | 14.0 | 0.00 | 0.00 | 0.00 | 32 | 1025.5 |
| 20260831212526 | 85 | 74 | 7.0 | 14.0 | 0.00 | 0.00 | 0.00 | 32 | 1025.5 |
| 20260831212028 | 84 | 40 | 2.0 | 14.0 | 0.00 | 0.00 | 0.00 | 32 | 1025.6 |
| 20260831211543 | 83 | 136 | 3.0 | 14.0 | 0.00 | 0.00 | 0.00 | 32 | 1025.6 |
| 20260831211026 | 83 | 110 | 6.0 | 14.0 | 0.00 | 0.00 | 0.00 | 33 | 1025.7 |
| 20260831210524 | 82 | 79 | 5.0 | 15.0 | 0.00 | 0.00 | 0.00 | 33 | 1025.8 |
| 20260831210049 | 82 | 76 | 5.0 | 15.0 | 0.00 | 0.00 | 0.00 | 35 | 1025.8 |
| 20260831205527 | 81 | 38 | 6.0 | 15.0 | 0.00 | 0.00 | 0.00 | 36 | 1025.9 |
| 20260831205026 | 80 | 9 | 8.0 | 15.0 | 0.00 | 0.00 | 0.00 | 37 | 1025.9 |
| 20260831204553 | 80 | 319 | 8.0 | 15.0 | 0.00 | 0.00 | 0.00 | 37 | 1026.0 |
| 20260831204023 | 82 | 321 | 6.0 | 14.0 | 0.00 | 0.00 | 0.00 | 37 | 1026.1 |
| 20260831203523 | 85 | 60 | 4.0 | 14.0 | 0.00 | 0.00 | 0.00 | 33 | 1026.2 |
| 20260831203045 | 85 | 71 | 4.0 | 12.0 | 0.00 | 0.00 | 0.00 | 30 | 1025.9 |
| 20260831202523 | 86 | 83 | 3.0 | 18.0 | 0.00 | 0.00 | 0.00 | 29 | 1026.0 |
| 20260831202027 | 86 | 98 | 8.0 | 18.0 | 0.00 | 0.00 | 0.00 | 29 | 1025.9 |
| 20260831201543 | 86 | 75 | 5.0 | 17.0 | 0.00 | 0.00 | 0.00 | 30 | 1025.8 |
| 20260831201026 | 86 | 55 | 8.0 | 17.0 | 0.00 | 0.00 | 0.00 | 30 | 1026.0 |
| 20260831200525 | 86 | 101 | 7.0 | 16.0 | 0.00 | 0.00 | 0.00 | 30 | 1026.1 |
| 20260831200051 | 85 | 94 | 6.0 | 16.0 | 0.00 | 0.00 | 0.00 | 30 | 1026.1 |
| 20260831195526 | 84 | 80 | 8.0 | 16.0 | 0.00 | 0.00 | 0.00 | 31 | 1026.1 |
| 20260831195025 | 83 | 83 | 7.0 | 13.0 | 0.00 | 0.00 | 0.00 | 31 | 1026.1 |
| 20260831194542 | 83 | 86 | 4.0 | 14.0 | 0.00 | 0.00 | 0.00 | 31 | 1026.1 |
| 20260831194027 | 82 | 104 | 5.0 | 14.0 | 0.00 | 0.00 | 0.00 | 31 | 1026.3 |
| 20260831193524 | 82 | 85 | 6.0 | 14.0 | 0.00 | 0.00 | 0.00 | 32 | 1026.3 |
| 20260831193043 | 82 | 92 | 6.0 | 14.0 | 0.00 | 0.00 | 0.00 | 32 | 1026.3 |
| 20260831192525 | 82 | 128 | 6.0 | 14.0 | 0.00 | 0.00 | 0.00 | 32 | 1026.4 |
| 20260831192026 | 81 | 126 | 5.0 | 13.0 | 0.00 | 0.00 | 0.00 | 33 | 1026.5 |
| 20260831191548 | 82 | 150 | 6.0 | 17.0 | 0.00 | 0.00 | 0.00 | 33 | 1026.5 |
| 20260831191026 | 81 | 67 | 8.0 | 17.0 | 0.00 | 0.00 | 0.00 | 33 | 1026.5 |
| 20260831190526 | 82 | 132 | 7.0 | 16.0 | 0.00 | 0.00 | 0.00 | 33 | 1026.5 |
| 20260831190104 | 82 | 131 | 6.0 | 16.0 | 0.00 | 0.00 | 0.00 | 33 | 1026.5 |
| 20260831185525 | 83 | 75 | 6.0 | 15.0 | 0.00 | 0.00 | 0.00 | 32 | 1026.7 |
| 20260831185025 | 83 | 73 | 6.0 | 18.0 | 0.00 | 0.00 | 0.00 | 32 | 1026.7 |
| 20260831184543 | 83 | 115 | 7.0 | 18.0 | 0.00 | 0.00 | 0.00 | 32 | 1026.9 |
| 20260831184027 | 84 | 60 | 6.0 | 13.0 | 0.00 | 0.00 | 0.00 | 31 | 1026.9 |
| 20260831183523 | 84 | 77 | 3.0 | 13.0 | 0.00 | 0.00 | 0.00 | 32 | 1026.9 |
| 20260831183050 | 84 | 67 | 5.0 | 18.0 | 0.00 | 0.00 | 0.00 | 31 | 1027.0 |
| 20260831182523 | 85 | 115 | 8.0 | 18.0 | 0.00 | 0.00 | 0.00 | 30 | 1026.9 |
| 20260831182027 | 85 | 116 | 2.0 | 15.0 | 0.00 | 0.00 | 0.00 | 30 | 1027.0 |
| 20260831181548 | 85 | 60 | 7.0 | 15.0 | 0.00 | 0.00 | 0.00 | 30 | 1027.1 |
| 20260831181022 | 83 | 101 | 5.0 | 12.0 | 0.00 | 0.00 | 0.00 | 32 | 1027.2 |
| 20260831180524 | 82 | 114 | 0.0 | 10.0 | 0.00 | 0.00 | 0.00 | 32 | 1027.3 |
| 20260831180047 | 82 | 111 | 4.0 | 10.0 | 0.00 | 0.00 | 0.00 | 32 | 1027.6 |
| 20260831175524 | 83 | 178 | 1.0 | 11.0 | 0.00 | 0.00 | 0.00 | 31 | 1027.6 |
| 20260831175029 | 83 | 191 | 3.0 | 11.0 | 0.00 | 0.00 | 0.00 | 31 | 1027.6 |
| 20260831174552 | 84 | 140 | 5.0 | 10.0 | 0.00 | 0.00 | 0.00 | 30 | 1027.6 |
| 20260831174029 | 84 | 114 | 4.0 | 8.0 | 0.00 | 0.00 | 0.00 | 30 | 1027.6 |
| 20260831173523 | 84 | 42 | 2.0 | 7.0 | 0.00 | 0.00 | 0.00 | 32 | 1027.6 |
| 20260831173049 | 83 | 227 | 3.0 | 7.0 | 0.00 | 0.00 | 0.00 | 31 | 1027.7 |
| 20260831172524 | 83 | 0 | 3.0 | 8.0 | 0.00 | 0.00 | 0.00 | 31 | 1027.7 |
| 20260831172028 | 83 | 185 | 3.0 | 10.0 | 0.00 | 0.00 | 0.00 | 31 | 1027.7 |
| 20260831171545 | 83 | 207 | 3.0 | 10.0 | 0.00 | 0.00 | 0.00 | 32 | 1027.7 |
| 20260831171024 | 81 | 141 | 2.0 | 10.0 | 0.00 | 0.00 | 0.00 | 33 | 1027.8 |
| 20260831170528 | 81 | 92 | 3.0 | 11.0 | 0.00 | 0.00 | 0.00 | 34 | 1027.8 |
| 20260831170100 | 80 | 153 | 4.0 | 12.0 | 0.00 | 0.00 | 0.00 | 34 | 1027.9 |
| 20260831165529 | 80 | 103 | 4.0 | 12.0 | 0.00 | 0.00 | 0.00 | 35 | 1027.8 |
| 20260831165025 | 80 | 122 | 5.0 | 9.0 | 0.00 | 0.00 | 0.00 | 34 | 1027.9 |
| 20260831164555 | 80 | 140 | 3.0 | 11.0 | 0.00 | 0.00 | 0.00 | 35 | 1028.0 |
| 20260831164028 | 79 | 138 | 3.0 | 15.0 | 0.00 | 0.00 | 0.00 | 35 | 1027.8 |
| 20260831163526 | 79 | 139 | 5.0 | 15.0 | 0.00 | 0.00 | 0.00 | 35 | 1027.8 |
| 20260831163043 | 79 | 128 | 4.0 | 11.0 | 0.00 | 0.00 | 0.00 | 36 | 1027.8 |
| 20260831162527 | 78 | 133 | 4.0 | 11.0 | 0.00 | 0.00 | 0.00 | 37 | 1027.9 |
| 20260831162030 | 77 | 101 | 5.0 | 11.0 | 0.00 | 0.00 | 0.00 | 37 | 1027.8 |
| 20260831161552 | 77 | 141 | 4.0 | 11.0 | 0.00 | 0.00 | 0.00 | 38 | 1027.8 |
| 20260831161027 | 76 | 134 | 5.0 | 11.0 | 0.00 | 0.00 | 0.00 | 39 | 1027.8 |
| 20260831160527 | 76 | 142 | 4.0 | 11.0 | 0.00 | 0.00 | 0.00 | 39 | 1027.8 |
| 20260831160050 | 75 | 153 | 3.0 | 12.0 | 0.00 | 0.00 | 0.00 | 41 | 1027.9 |
| 20260831155527 | 74 | 122 | 5.0 | 12.0 | 0.00 | 0.00 | 0.00 | 41 | 1027.9 |
| 20260831155027 | 74 | 131 | 7.0 | 15.0 | 0.00 | 0.00 | 0.00 | 42 | 1027.9 |
| 20260831154610 | 73 | 155 | 6.0 | 15.0 | 0.00 | 0.00 | 0.00 | 43 | 1027.9 |
| 20260831154028 | 72 | 125 | 6.0 | 15.0 | 0.00 | 0.00 | 0.00 | 44 | 1028.0 |
| 20260831153526 | 71 | 142 | 5.0 | 13.0 | 0.00 | 0.00 | 0.00 | 45 | 1028.0 |
| 20260831153043 | 70 | 142 | 4.0 | 13.0 | 0.00 | 0.00 | 0.00 | 46 | 1027.9 |
| 20260831152528 | 70 | 150 | 6.0 | 15.0 | 0.00 | 0.00 | 0.00 | 46 | 1028.1 |
| 20260831152026 | 70 | 113 | 7.0 | 15.0 | 0.00 | 0.00 | 0.00 | 47 | 1028.0 |
| 20260831151557 | 70 | 123 | 5.0 | 14.0 | 0.00 | 0.00 | 0.00 | 48 | 1028.1 |
| 20260831151025 | 69 | 133 | 4.0 | 13.0 | 0.00 | 0.00 | 0.00 | 49 | 1028.1 |
| 20260831150527 | 69 | 141 | 4.0 | 15.0 | 0.00 | 0.00 | 0.00 | 50 | 1028.1 |
| 20260831150049 | 68 | 135 | 6.0 | 17.0 | 0.00 | 0.00 | 0.00 | 50 | 1028.2 |
| 20260831145526 | 68 | 154 | 8.0 | 17.0 | 0.00 | 0.00 | 0.00 | 50 | 1028.2 |
| 20260831145025 | 68 | 159 | 7.0 | 16.0 | 0.00 | 0.00 | 0.00 | 52 | 1028.3 |
| 20260831144545 | 68 | 124 | 8.0 | 16.0 | 0.00 | 0.00 | 0.00 | 52 | 1028.4 |
| 20260831144029 | 68 | 150 | 5.0 | 12.0 | 0.00 | 0.00 | 0.00 | 53 | 1028.5 |
| 20260831143526 | 67 | 157 | 4.0 | 16.0 | 0.00 | 0.00 | 0.00 | 55 | 1028.5 |
| 20260831143050 | 66 | 134 | 5.0 | 16.0 | 0.00 | 0.00 | 0.00 | 55 | 1028.5 |
| 20260831142526 | 66 | 158 | 7.0 | 16.0 | 0.00 | 0.00 | 0.00 | 55 | 1028.5 |
| 20260831142033 | 66 | 157 | 6.0 | 16.0 | 0.00 | 0.00 | 0.00 | 55 | 1028.5 |
| 20260831141602 | 67 | 157 | 6.0 | 16.0 | 0.00 | 0.00 | 0.00 | 55 | 1028.5 |
| 20260831141024 | 67 | 130 | 5.0 | 14.0 | 0.00 | 0.00 | 0.00 | 55 | 1028.5 |
| 20260831140531 | 67 | 125 | 4.0 | 14.0 | 0.00 | 0.00 | 0.00 | 55 | 1028.4 |
| 20260831140042 | 66 | 220 | 6.0 | 12.0 | 0.00 | 0.00 | 0.00 | 55 | 1028.5 |
| 20260831135526 | 66 | 269 | 6.0 | 13.0 | 0.00 | 0.00 | 0.00 | 55 | 1028.6 |
| 20260831135031 | 65 | 246 | 7.0 | 13.0 | 0.00 | 0.00 | 0.00 | 55 | 1028.6 |
| 20260831134548 | 65 | 236 | 3.0 | 16.0 | 0.00 | 0.00 | 0.00 | 55 | 1028.7 |
| 20260831134024 | 65 | 284 | 6.0 | 17.0 | 0.00 | 0.00 | 0.00 | 55 | 1028.6 |
| 20260831133527 | 65 | 194 | 6.0 | 17.0 | 0.00 | 0.00 | 0.00 | 55 | 1028.5 |
| 20260831133045 | 64 | 254 | 5.0 | 13.0 | 0.00 | 0.00 | 0.00 | 56 | 1028.3 |
| 20260831132527 | 64 | 235 | 6.0 | 13.0 | 0.00 | 0.00 | 0.00 | 56 | 1028.4 |
| 20260831132024 | 64 | 232 | 5.0 | 12.0 | 0.00 | 0.00 | 0.00 | 56 | 1028.4 |
| 20260831131554 | 63 | 238 | 5.0 | 11.0 | 0.00 | 0.00 | 0.00 | 56 | 1028.3 |
| 20260831131028 | 63 | 252 | 3.0 | 12.0 | 0.00 | 0.00 | 0.00 | 56 | 1028.2 |
| 20260831130523 | 63 | 240 | 3.0 | 12.0 | 0.00 | 0.00 | 0.00 | 56 | 1028.1 |
| 20260831130048 | 62 | 265 | 4.0 | 11.0 | 0.00 | 0.00 | 0.00 | 56 | 1028.1 |
| 20260831125525 | 62 | 225 | 4.0 | 11.0 | 0.00 | 0.00 | 0.00 | 57 | 1028.0 |
| 20260831125026 | 62 | 280 | 4.0 | 10.0 | 0.00 | 0.00 | 0.00 | 57 | 1028.0 |
| 20260831124545 | 62 | 259 | 3.0 | 10.0 | 0.00 | 0.00 | 0.00 | 57 | 1027.9 |
| 20260831124031 | 62 | 279 | 5.0 | 9.0 | 0.00 | 0.00 | 0.00 | 58 | 1027.8 |
| 20260831123529 | 62 | 279 | 2.0 | 11.0 | 0.00 | 0.00 | 0.00 | 58 | 1027.8 |
| 20260831123053 | 62 | 265 | 4.0 | 11.0 | 0.00 | 0.00 | 0.00 | 58 | 1027.7 |
| 20260831122528 | 62 | 265 | 5.0 | 11.0 | 0.00 | 0.00 | 0.00 | 57 | 1027.5 |
| 20260831122030 | 63 | 274 | 5.0 | 11.0 | 0.00 | 0.00 | 0.00 | 57 | 1027.6 |
| 20260831121548 | 63 | 292 | 4.0 | 11.0 | 0.00 | 0.00 | 0.00 | 56 | 1027.4 |
| 20260831121027 | 63 | 282 | 3.0 | 10.0 | 0.00 | 0.00 | 0.00 | 56 | 1027.6 |
| 20260831120527 | 63 | 265 | 4.0 | 9.0 | 0.00 | 0.00 | 0.00 | 56 | 1027.6 |
| 20260831120045 | 64 | 247 | 3.0 | 10.0 | 0.00 | 0.00 | 0.00 | 55 | 1027.6 |
| 20260831115526 | 64 | 221 | 3.0 | 10.0 | 0.00 | 0.00 | 0.00 | 54 | 1027.7 |
| 20260831115024 | 64 | 200 | 3.0 | 8.0 | 0.00 | 0.00 | 0.00 | 54 | 1027.8 |
| 20260831114544 | 64 | 192 | 3.0 | 8.0 | 0.00 | 0.00 | 0.00 | 53 | 1027.7 |
| 20260831114024 | 64 | 198 | 2.0 | 6.0 | 0.00 | 0.00 | 0.00 | 52 | 1027.4 |
| 20260831113525 | 64 | 250 | 1.0 | 8.0 | 0.00 | 0.00 | 0.00 | 51 | 1027.1 |
| 20260831113051 | 64 | 253 | 1.0 | 8.0 | 0.00 | 0.00 | 0.00 | 51 | 1027.0 |
| 20260831112524 | 64 | 279 | 2.0 | 8.0 | 0.00 | 0.00 | 0.00 | 51 | 1026.8 |
| 20260831112024 | 64 | 274 | 2.0 | 11.0 | 0.00 | 0.00 | 0.00 | 51 | 1026.8 |
| 20260831111603 | 64 | 277 | 2.0 | 11.0 | 0.00 | 0.00 | 0.00 | 51 | 1026.9 |
| 20260831111023 | 64 | 286 | 3.0 | 11.0 | 0.00 | 0.00 | 0.00 | 51 | 1026.9 |
| 20260831110525 | 64 | 281 | 4.0 | 11.0 | 0.00 | 0.00 | 0.00 | 51 | 1026.9 |
| 20260831110048 | 64 | 259 | 4.0 | 10.0 | 0.00 | 0.00 | 0.00 | 52 | 1027.0 |
| 20260831105524 | 64 | 266 | 4.0 | 10.0 | 0.00 | 0.00 | 0.00 | 52 | 1027.0 |
| 20260831105025 | 64 | 234 | 4.0 | 10.0 | 0.00 | 0.00 | 0.00 | 52 | 1027.0 |
| 20260831104553 | 65 | 259 | 4.0 | 10.0 | 0.00 | 0.00 | 0.00 | 52 | 1027.0 |
| 20260831104028 | 65 | 282 | 4.0 | 13.0 | 0.00 | 0.00 | 0.00 | 52 | 1027.0 |
| 20260831103523 | 65 | 290 | 3.0 | 13.0 | 0.00 | 0.00 | 0.00 | 52 | 1027.0 |
| 20260831103047 | 65 | 306 | 6.0 | 13.0 | 0.00 | 0.00 | 0.00 | 52 | 1026.9 |
| 20260831102526 | 65 | 292 | 5.0 | 13.0 | 0.00 | 0.00 | 0.00 | 53 | 1027.0 |
| 20260831102025 | 64 | 214 | 4.0 | 16.0 | 0.00 | 0.00 | 0.00 | 54 | 1027.0 |
| 20260831101545 | 64 | 212 | 6.0 | 16.0 | 0.00 | 0.00 | 0.00 | 54 | 1027.0 |
| 20260831101025 | 64 | 265 | 7.0 | 16.0 | 0.00 | 0.00 | 0.00 | 54 | 1026.9 |
| 20260831100528 | 64 | 284 | 3.0 | 12.0 | 0.00 | 0.00 | 0.00 | 54 | 1026.7 |
| 20260831100049 | 64 | 260 | 6.0 | 11.0 | 0.00 | 0.00 | 0.00 | 54 | 1026.7 |
| 20260831095525 | 64 | 281 | 5.0 | 12.0 | 0.00 | 0.00 | 0.00 | 54 | 1026.6 |
| 20260831095028 | 64 | 286 | 6.0 | 12.0 | 0.00 | 0.00 | 0.00 | 54 | 1026.5 |
| 20260831094542 | 64 | 274 | 5.0 | 12.0 | 0.00 | 0.00 | 0.00 | 53 | 1026.5 |
| 20260831094025 | 64 | 242 | 6.0 | 12.0 | 0.00 | 0.00 | 0.00 | 53 | 1026.5 |
| 20260831093525 | 65 | 275 | 4.0 | 10.0 | 0.00 | 0.00 | 0.00 | 52 | 1026.5 |
| 20260831093053 | 65 | 273 | 4.0 | 11.0 | 0.00 | 0.00 | 0.00 | 52 | 1026.4 |
| 20260831092526 | 65 | 281 | 4.0 | 11.0 | 0.00 | 0.00 | 0.00 | 52 | 1026.3 |
| 20260831092030 | 65 | 292 | 4.0 | 10.0 | 0.00 | 0.00 | 0.00 | 52 | 1026.4 |
| 20260831091546 | 65 | 257 | 4.0 | 11.0 | 0.00 | 0.00 | 0.00 | 52 | 1026.3 |
| 20260831091027 | 65 | 264 | 4.0 | 13.0 | 0.00 | 0.00 | 0.00 | 52 | 1026.3 |
| 20260831090525 | 65 | 240 | 6.0 | 14.0 | 0.00 | 0.00 | 0.00 | 52 | 1026.3 |
| 20260831090043 | 65 | 267 | 6.0 | 14.0 | 0.00 | 0.00 | 0.00 | 53 | 1026.4 |
| 20260831085524 | 65 | 267 | 4.0 | 11.0 | 0.00 | 0.00 | 0.00 | 53 | 1026.4 |
| 20260831085029 | 65 | 269 | 5.0 | 11.0 | 0.00 | 0.00 | 0.00 | 53 | 1026.5 |
| 20260831084550 | 66 | 291 | 4.0 | 18.0 | 0.00 | 0.00 | 0.00 | 53 | 1026.5 |
| 20260831084025 | 66 | 226 | 6.0 | 18.0 | 0.00 | 0.00 | 0.00 | 53 | 1026.6 |
| 20260831083525 | 66 | 252 | 4.0 | 11.0 | 0.00 | 0.00 | 0.00 | 52 | 1026.5 |
| 20260831083053 | 66 | 274 | 6.0 | 14.0 | 0.00 | 0.00 | 0.00 | 52 | 1026.5 |
| 20260831082526 | 66 | 288 | 7.0 | 14.0 | 0.00 | 0.00 | 0.00 | 52 | 1026.6 |
| 20260831082028 | 66 | 269 | 6.0 | 11.0 | 0.00 | 0.00 | 0.00 | 52 | 1026.7 |
| 20260831081543 | 66 | 211 | 4.0 | 11.0 | 0.00 | 0.00 | 0.00 | 52 | 1026.7 |
| 20260831081027 | 66 | 209 | 4.0 | 11.0 | 0.00 | 0.00 | 0.00 | 52 | 1026.7 |
| 20260831080523 | 66 | 257 | 4.0 | 10.0 | 0.00 | 0.00 | 0.00 | 52 | 1026.7 |
| 20260831080051 | 66 | 286 | 4.0 | 11.0 | 0.00 | 0.00 | 0.00 | 52 | 1026.8 |
| 20260831075523 | 66 | 283 | 3.0 | 11.0 | 0.00 | 0.00 | 0.00 | 52 | 1026.7 |
| 20260831075026 | 66 | 242 | 2.0 | 8.0 | 0.00 | 0.00 | 0.00 | 51 | 1026.7 |
| 20260831074549 | 66 | 249 | 2.0 | 10.0 | 0.00 | 0.00 | 0.00 | 51 | 1026.7 |
| 20260831074023 | 67 | 242 | 3.0 | 10.0 | 0.00 | 0.00 | 0.00 | 50 | 1026.7 |
| 20260831073525 | 67 | 262 | 2.0 | 10.0 | 0.00 | 0.00 | 0.00 | 49 | 1026.7 |
| 20260831073057 | 67 | 258 | 3.0 | 10.0 | 0.00 | 0.00 | 0.00 | 49 | 1026.7 |
| 20260831072528 | 67 | 270 | 3.0 | 9.0 | 0.00 | 0.00 | 0.00 | 49 | 1026.6 |
| 20260831072022 | 67 | 304 | 2.0 | 9.0 | 0.00 | 0.00 | 0.00 | 48 | 1026.6 |
| 20260831071541 | 67 | 269 | 3.0 | 7.0 | 0.00 | 0.00 | 0.00 | 48 | 1026.5 |
| 20260831071024 | 67 | 263 | 2.0 | 7.0 | 0.00 | 0.00 | 0.00 | 48 | 1026.6 |
| 20260831070527 | 67 | 244 | 2.0 | 7.0 | 0.00 | 0.00 | 0.00 | 48 | 1026.7 |
| 20260831070051 | 68 | 245 | 1.0 | 10.0 | 0.00 | 0.00 | 0.00 | 48 | 1026.7 |
| 20260831065530 | 68 | 263 | 3.0 | 10.0 | 0.00 | 0.00 | 0.00 | 48 | 1026.6 |
| 20260831065024 | 67 | 246 | 4.0 | 8.0 | 0.00 | 0.00 | 0.00 | 48 | 1026.8 |
| 20260831064547 | 67 | 237 | 4.0 | 11.0 | 0.00 | 0.00 | 0.00 | 49 | 1026.8 |
| 20260831064024 | 66 | 252 | 5.0 | 11.0 | 0.00 | 0.00 | 0.00 | 49 | 1026.7 |
| 20260831063524 | 65 | 215 | 4.0 | 10.0 | 0.00 | 0.00 | 0.00 | 49 | 1026.7 |
| 20260831063045 | 65 | 0 | 0.0 | 1.0 | 0.00 | 0.00 | 0.00 | 50 | 1026.3 |
| 20260831062523 | 65 | 0 | 0.0 | 0.0 | 0.00 | 0.00 | 0.00 | 50 | 1026.1 |
| 20260831062028 | 65 | 0 | 0.0 | 2.0 | 0.00 | 0.00 | 0.00 | 50 | 1025.9 |
| 20260831061543 | 65 | 0 | 0.0 | 3.0 | 0.00 | 0.00 | 0.00 | 50 | 1025.9 |
| 20260831061025 | 65 | 32 | 1.0 | 3.0 | 0.00 | 0.00 | 0.00 | 50 | 1025.8 |
| 20260831060524 | 65 | 32 | 1.0 | 3.0 | 0.00 | 0.00 | 0.00 | 51 | 1025.8 |
| 20260831060052 | 64 | 32 | 1.0 | 4.0 | 0.00 | 0.00 | 0.00 | 51 | 1025.8 |
| 20260831055524 | 64 | 32 | 2.0 | 4.0 | 0.00 | 0.00 | 0.00 | 51 | 1025.9 |
| 20260831055024 | 64 | 32 | 2.0 | 4.0 | 0.00 | 0.00 | 0.00 | 51 | 1026.0 |
| 20260831054547 | 64 | 33 | 2.0 | 4.0 | 0.00 | 0.00 | 0.00 | 51 | 1026.0 |
| 20260831054025 | 64 | 33 | 3.0 | 4.0 | 0.00 | 0.00 | 0.00 | 51 | 1026.0 |
| 20260831053525 | 64 | 33 | 2.0 | 4.0 | 0.00 | 0.00 | 0.00 | 51 | 1026.0 |
| 20260831053051 | 64 | 34 | 3.0 | 4.0 | 0.00 | 0.00 | 0.00 | 51 | 1026.1 |
| 20260831052525 | 64 | 35 | 3.0 | 4.0 | 0.00 | 0.00 | 0.00 | 51 | 1026.0 |
| 20260831052028 | 65 | 36 | 2.0 | 3.0 | 0.00 | 0.00 | 0.00 | 51 | 1026.0 |
| 20260831051547 | 65 | 36 | 1.0 | 3.0 | 0.00 | 0.00 | 0.00 | 51 | 1026.1 |
| 20260831051023 | 65 | 36 | 1.0 | 3.0 | 0.00 | 0.00 | 0.00 | 50 | 1026.0 |
| 20260831050525 | 66 | 0 | 0.0 | 3.0 | 0.00 | 0.00 | 0.00 | 50 | 1026.0 |
| 20260831050045 | 66 | 0 | 1.0 | 4.0 | 0.00 | 0.00 | 0.00 | 50 | 1025.9 |
| 20260831045526 | 66 | 36 | 2.0 | 4.0 | 0.00 | 0.00 | 0.00 | 49 | 1026.0 |
| 20260831045024 | 67 | 36 | 3.0 | 4.0 | 0.00 | 0.00 | 0.00 | 48 | 1026.1 |
| 20260831044543 | 68 | 0 | 1.0 | 2.0 | 0.00 | 0.00 | 0.00 | 47 | 1026.1 |
| 20260831044028 | 68 | 0 | 0.0 | 3.0 | 0.00 | 0.00 | 0.00 | 47 | 1026.1 |
| 20260831043523 | 69 | 36 | 1.0 | 3.0 | 0.00 | 0.00 | 0.00 | 46 | 1026.0 |
| 20260831043049 | 69 | 0 | 0.0 | 4.0 | 0.00 | 0.00 | 0.00 | 45 | 1026.1 |
| 20260831042525 | 70 | 0 | 0.0 | 4.0 | 0.00 | 0.00 | 0.00 | 45 | 1026.1 |
| 20260831042025 | 70 | 115 | 0.0 | 4.0 | 0.00 | 0.00 | 0.00 | 44 | 1026.1 |
| 20260831041551 | 71 | 0 | 0.0 | 3.0 | 0.00 | 0.00 | 0.00 | 44 | 1026.1 |
| 20260831041023 | 71 | 114 | 1.0 | 3.0 | 0.00 | 0.00 | 0.00 | 43 | 1026.1 |
| 20260831040524 | 72 | 110 | 0.0 | 3.0 | 0.00 | 0.00 | 0.00 | 42 | 1026.1 |
| 20260831040043 | 72 | 63 | 1.0 | 2.0 | 0.00 | 0.00 | 0.00 | 42 | 1026.1 |
| 20260831035524 | 72 | 63 | 0.0 | 3.0 | 0.00 | 0.00 | 0.00 | 42 | 1026.2 |
| 20260831035023 | 72 | 63 | 0.0 | 9.0 | 0.00 | 0.00 | 0.00 | 41 | 1026.2 |
| 20260831034554 | 73 | 63 | 1.0 | 9.0 | 0.00 | 0.00 | 0.00 | 41 | 1026.1 |
| 20260831034026 | 73 | 63 | 1.0 | 6.0 | 0.00 | 0.00 | 0.00 | 41 | 1026.1 |
| 20260831033525 | 73 | 144 | 1.0 | 4.0 | 0.00 | 0.00 | 0.00 | 40 | 1025.9 |
| 20260831033042 | 73 | 144 | 1.0 | 3.0 | 0.00 | 0.00 | 0.00 | 40 | 1025.8 |
| 20260831032527 | 73 | 143 | 0.0 | 3.0 | 0.00 | 0.00 | 0.00 | 40 | 1025.7 |
| 20260831032023 | 73 | 0 | 1.0 | 3.0 | 0.00 | 0.00 | 0.00 | 40 | 1025.8 |
| 20260831031549 | 73 | 143 | 1.0 | 3.0 | 0.00 | 0.00 | 0.00 | 40 | 1025.7 |
| 20260831031024 | 73 | 142 | 0.0 | 3.0 | 0.00 | 0.00 | 0.00 | 40 | 1025.7 |
| 20260831030524 | 73 | 142 | 1.0 | 5.0 | 0.00 | 0.00 | 0.00 | 40 | 1025.5 |
| 20260831030045 | 73 | 142 | 2.0 | 5.0 | 0.00 | 0.00 | 0.00 | 40 | 1025.3 |
| 20260831025523 | 73 | 134 | 2.0 | 4.0 | 0.00 | 0.00 | 0.00 | 40 | 1025.4 |
| 20260831025023 | 73 | 128 | 1.0 | 3.0 | 0.00 | 0.00 | 0.00 | 40 | 1025.3 |
| 20260831024551 | 73 | 0 | 0.0 | 3.0 | 0.00 | 0.00 | 0.00 | 40 | 1025.3 |
| 20260831024024 | 74 | 127 | 1.0 | 3.0 | 0.00 | 0.00 | 0.00 | 40 | 1025.2 |
| 20260831023525 | 73 | 126 | 1.0 | 3.0 | 0.00 | 0.00 | 0.00 | 40 | 1025.2 |
| 20260831023048 | 74 | 126 | 0.0 | 4.0 | 0.00 | 0.00 | 0.00 | 40 | 1025.1 |
| 20260831022523 | 74 | 126 | 2.0 | 4.0 | 0.00 | 0.00 | 0.00 | 40 | 1025.0 |